createdAt,value
2023-05-01T00:09:12.603Z,11.80
2023-05-01T00:19:18.468Z,11.80
2023-05-01T00:29:23.797Z,11.80
2023-05-01T00:39:27.514Z,11.90
2023-05-01T00:49:32.551Z,12.00
2023-05-01T00:59:36.306Z,11.90
2023-05-01T01:09:57.522Z,11.90
2023-05-01T01:20:28.187Z,11.80
2023-05-01T01:31:05.700Z,11.70
2023-05-01T01:41:17.260Z,11.60
2023-05-01T01:51:23.598Z,11.40
2023-05-01T02:01:30.645Z,11.00
2023-05-01T02:11:36.213Z,10.80
2023-05-01T02:21:41.716Z,10.60
2023-05-01T02:31:45.318Z,10.40
2023-05-01T02:41:51.998Z,10.30
2023-05-01T02:51:57.648Z,10.20
2023-05-01T03:02:02.701Z,10.10
2023-05-01T03:12:06.856Z,9.80
2023-05-01T03:22:11.723Z,9.80
2023-05-01T03:32:16.734Z,9.80
2023-05-01T03:42:21.852Z,9.80
2023-05-01T03:52:26.336Z,9.80
2023-05-01T04:02:31.698Z,9.90
2023-05-01T04:12:35.359Z,9.80
2023-05-01T04:22:40.361Z,9.70
2023-05-01T04:32:43.896Z,9.50
2023-05-01T04:42:48.984Z,9.60
2023-05-01T04:52:52.514Z,9.60
2023-05-01T05:02:57.620Z,9.90
2023-05-01T05:13:01.242Z,10.00
2023-05-01T05:23:07.343Z,10.00
2023-05-01T05:33:11.983Z,9.90
2023-05-01T05:43:16.976Z,10.10
2023-05-01T05:53:20.776Z,10.40
2023-05-01T06:03:27.300Z,10.50
2023-05-01T06:13:31.138Z,10.60
2023-05-01T06:23:36.162Z,10.80
2023-05-01T06:33:39.724Z,11.00
2023-05-01T06:43:44.808Z,11.20
2023-05-01T06:53:48.426Z,11.40
2023-05-01T07:03:53.350Z,11.90
2023-05-01T07:13:57.048Z,12.10
2023-05-01T07:24:01.996Z,12.20
2023-05-01T07:34:05.718Z,12.20
2023-05-01T07:44:10.672Z,12.40
2023-05-01T07:54:15.697Z,12.70
2023-05-01T08:04:22.647Z,13.20
2023-05-01T08:14:26.356Z,14.20
2023-05-01T08:24:31.325Z,14.50
2023-05-01T08:34:34.965Z,14.80
2023-05-01T08:44:42.110Z,15.30
2023-05-01T08:54:47.142Z,15.80
2023-05-01T09:04:53.165Z,16.40
2023-05-01T09:14:58.163Z,16.70
2023-05-01T09:25:03.793Z,16.90
2023-05-01T09:35:13.605Z,17.30
2023-05-01T09:45:20.061Z,17.30
2023-05-01T09:55:25.552Z,17.30
2023-05-01T10:05:44.437Z,17.70
2023-05-01T10:15:48.227Z,17.90
2023-05-01T10:25:54.410Z,18.00
2023-05-01T10:36:01.640Z,18.30
2023-05-01T10:46:32.089Z,18.50
2023-05-01T10:56:43.960Z,18.50
2023-05-01T11:07:17.853Z,18.50
2023-05-01T11:17:47.155Z,18.80
2023-05-01T11:27:56.721Z,18.60
2023-05-01T11:38:00.387Z,18.60
2023-05-01T11:48:15.953Z,18.70
2023-05-01T11:58:31.992Z,18.80
2023-05-01T12:08:37.189Z,18.80
2023-05-01T12:18:41.136Z,19.20
2023-05-01T12:28:57.421Z,19.40
2023-05-01T12:39:03.692Z,19.20
2023-05-01T12:49:08.983Z,19.50
2023-05-01T12:59:22.877Z,19.70
2023-05-01T13:09:30.895Z,19.80
2023-05-01T13:19:34.829Z,20.40
2023-05-01T13:29:41.721Z,20.30
2023-05-01T13:39:47.106Z,20.20
2023-05-01T13:49:56.732Z,20.50
2023-05-01T14:00:00.570Z,21.00
2023-05-01T14:10:11.017Z,20.40
2023-05-01T14:20:14.984Z,20.40
2023-05-01T14:30:29.866Z,19.90
2023-05-01T14:40:34.982Z,19.60
2023-05-01T14:50:41.106Z,19.60
2023-05-01T15:00:44.725Z,19.50
2023-05-01T15:10:49.671Z,19.70
2023-05-01T15:20:53.289Z,19.90
2023-05-01T15:30:58.380Z,19.60
2023-05-01T15:41:01.985Z,19.40
2023-05-01T15:51:07.267Z,19.60
2023-05-01T16:01:13.364Z,19.90
2023-05-01T16:11:18.381Z,20.90
2023-05-01T16:21:22.520Z,21.80
2023-05-01T16:31:28.209Z,21.40
2023-05-01T16:41:31.999Z,21.20
2023-05-01T16:51:37.263Z,20.40
2023-05-01T17:01:40.912Z,19.90
2023-05-01T17:11:46.268Z,21.00
2023-05-01T17:21:49.878Z,21.10
2023-05-01T17:31:54.990Z,20.00
2023-05-01T17:41:58.615Z,19.30
2023-05-01T17:52:03.608Z,18.80
2023-05-01T18:02:07.818Z,18.30
2023-05-01T18:12:13.326Z,18.10
2023-05-01T18:22:17.195Z,17.90
2023-05-01T18:32:26.189Z,17.50
2023-05-01T18:42:33.929Z,17.10
2023-05-01T18:52:39.023Z,16.90
2023-05-01T19:02:43.042Z,16.70
2023-05-01T19:12:48.015Z,16.40
2023-05-01T19:22:51.603Z,16.00
2023-05-01T19:32:57.831Z,15.80
2023-05-01T19:43:01.629Z,15.50
2023-05-01T19:53:06.668Z,15.80
2023-05-01T20:03:10.777Z,15.80
2023-05-01T20:13:15.887Z,15.80
2023-05-01T20:23:22.793Z,15.80
2023-05-01T20:33:27.825Z,15.70
2023-05-01T20:43:31.390Z,15.50
2023-05-01T20:53:36.516Z,15.30
2023-05-01T21:03:40.572Z,15.10
2023-05-01T21:13:45.629Z,15.00
2023-05-01T21:23:49.774Z,14.90
2023-05-01T21:33:55.079Z,14.80
2023-05-01T21:43:58.901Z,14.90
2023-05-01T21:54:06.479Z,14.90
2023-05-01T22:04:10.223Z,14.80
2023-05-01T22:14:16.189Z,14.80
2023-05-01T22:24:20.405Z,14.70
2023-05-01T22:34:25.515Z,14.60
2023-05-01T22:44:29.107Z,14.50
2023-05-01T22:54:34.439Z,14.30
2023-05-01T23:04:38.222Z,14.30
2023-05-01T23:14:46.668Z,14.10
2023-05-01T23:24:50.806Z,14.10
2023-05-01T23:34:57.353Z,14.10
2023-05-01T23:45:01.112Z,14.00
2023-05-01T23:55:06.768Z,13.90
